LOWG 210220Z AUTO VRB01KT 9999 FEW004 OVC060 11/10 Q1023 LOWG 210150Z AUTO VRB01KT 9999 FEW003 OVC060 11/10 Q1023 LOWG 210120Z AUTO VRB01KT 9999 FEW044 BKN060 11/10 Q1023 LOWG 210050Z AUTO VRB01KT 9999 FEW042 SCT046 BKN060 12/11 Q1023 LOWG 210020Z AUTO VRB01KT 9999 FEW040 SCT042 BKN050 11/10 Q1023 LOWG 202350Z AUTO VRB01KT 9999 SCT042 BKN060 11/10 Q1023 LOWG 202320Z AUTO 06002KT 9999 FEW040 SCT044 BKN060 11/10 Q1023 LOWG 202250Z AUTO VRB01KT 9999 FEW040 SCT042 BKN060 12/10 Q1023 LOWG 202220Z AUTO VRB01KT 9999 FEW040 BKN042 12/10 Q1023 LOWG 202150Z AUTO VRB01KT 9999 FEW040 BKN044 12/10 Q1023 LOWG 202120Z VRB02KT 9999 FEW020 SCT037 BKN040 12/10 Q1023 NOSIG LOWG 202050Z VRB01KT 9999 FEW020 SCT037 BKN040 12/10 Q1023 NOSIG LOWG 202020Z VRB01KT 9999 FEW020 SCT035 BKN040 12/10 Q1022 NOSIG LOWG 201950Z VRB01KT 9999 FEW020 SCT035 BKN038 12/10 Q1022 NOSIG LOWG 201920Z VRB01KT 9999 FEW020 BKN034 BKN040 12/10 Q1022 NOSIG LOWG 201850Z VRB01KT 9999 FEW020 BKN035 BKN040 12/10 Q1022 NOSIG LOWG 201820Z 09003KT 9999 FEW020 SCT034 BKN040 12/10 Q1021 NOSIG LOWG 201750Z VRB01KT 9999 FEW015 SCT032 BKN036 12/09 Q1021 NOSIG LOWG 201720Z 12002KT 9999 FEW015 SCT030 BKN035 13/09 Q1020 NOSIG LOWG 201650Z 16002KT 9999 FEW014 SCT025 BKN030 13/09 Q1020 NOSIG LOWG 201620Z VRB02KT 9999 FEW014 SCT020 BKN028 13/09 Q1020 NOSIG LOWG 201550Z VRB02KT 9999 FEW013 SCT020 BKN028 13/09 Q1020 NOSIG LOWG 201520Z 12002KT 9999 FEW013 SCT018 BKN027 13/09 Q1019 NOSIG LOWG 201450Z 17003KT 9999 FEW013 SCT020 BKN024 13/09 Q1019 NOSIG LOWG 201420Z 16006KT 9999 FEW013 SCT019 BKN022 13/09 Q1019 NOSIG LOWG 201350Z 13005KT 9999 FEW013 SCT018 BKN020 13/09 Q1019 NOSIG LOWG 201320Z VRB02KT 9999 FEW013 SCT018 BKN022 13/09 Q1019 NOSIG LOWG 201250Z VRB02KT 9999 FEW009 SCT013 BKN019 13/09 Q1019 NOSIG LOWG 201220Z 24004KT 180V280 9999 FEW005 SCT009 BKN018 13/09 Q1019 NOSIG LOWG 201150Z 22005KT 180V270 9999 FEW005 SCT009 BKN030 13/09 Q1018 NOSIG LOWG 201120Z 22004KT 190V260 9999 FEW005 SCT012 BKN015 12/09 Q1019 NOSIG LOWG 201050Z VRB01KT 9999 FEW003 SCT008 BKN014 12/08 Q1018 BECMG BKN018 LOWG 201020Z VRB01KT 9999 FEW003 SCT008 BKN014 11/09 Q1018 BECMG BKN018 LOWG 200950Z VRB03KT 9999 FEW003 SCT008 BKN012 11/09 Q1018 BECMG BKN015 LOWG 200920Z VRB03KT 9999 FEW003 SCT008 BKN012 11/09 Q1018 BECMG FM1000 BKN015 LOWG 200850Z 17004KT 9999 FEW003 SCT008 BKN010 10/08 Q1018 BECMG FM0930 BKN015 LOWG 200820Z 18005KT 9999 FEW003 SCT008 BKN010 10/08 Q1018 BECMG FM0915 BKN015 LOWG 200750Z 15004KT 130V190 9999 FEW003 SCT005 BKN007 10/08 Q1018 BECMG BKN012 LOWG 200720Z 17004KT 140V210 9999 -RA FEW003 SCT005 BKN006 10/08 Q1017 BECMG BKN012 LOWG 200650Z 17005KT 9999 -RA FEW003 SCT006 BKN012 09/08 Q1017 TEMPO BKN006 LOWG 200620Z 16005KT 9999 -RA FEW003 SCT006 BKN012 09/08 Q1017 RERA NOSIG LOWG 200550Z 18004KT 9999 RA FEW003 SCT005 BKN007 09/08 Q1016 RERA BECMG NSW TEMPO SCT007 BKN014 LOWG 200520Z 17005KT 9999 -RA FEW003 SCT008 BKN012 09/08 Q1016 TEMPO RA BKN008 BKN020 LOWG 200450Z 18003KT 9999 -RA FEW003 SCT006 BKN012 09/08 Q1015 TEMPO BKN007 LOWG 200420Z 18003KT 9999 -RA FEW004 SCT006 BKN012 09/08 Q1015 NOSIG LOWG 200350Z 15004KT 8000 -RA FEW004 SCT012 OVC037 09/08 Q1015 RERA TEMPO RA BKN009 LOWG 200320Z AUTO 14006KT 6000 RA FEW004 SCT013 BKN024 09/08 Q1015 LOWG 200250Z AUTO 15005KT 6000 RA FEW003 SCT007 BKN014 09/08 Q1015 LOWG 200220Z AUTO 15005KT 130V190 8000 -RA FEW004 SCT007 BKN013 10/09 Q1014 RERA LOWG 200150Z AUTO 15005KT 9000 -RADZ FEW005 BKN010 10/09 Q1014 LOWG 200120Z AUTO 14004KT 9999 SCT005 BKN014 10/09 Q1014 REDZ LOWG 200050Z AUTO 17005KT 6000 DZ FEW006 SCT014 BKN015 11/09 Q1014 LOWG 200020Z AUTO 18003KT 160V220 9999 -RADZ FEW008 SCT014 BKN019 11/10 Q1014 REDZ LOWG 192350Z AUTO 16002KT 9999 -RA FEW010 SCT013 BKN020 11/10 Q1014 LOWG 192320Z AUTO VRB02KT 9999 -RA FEW011 SCT012 BKN020 11/09 Q1014 LOWG 192250Z AUTO 12005KT 080V150 9999 -RA FEW010 SCT013 BKN016 12/09 Q1014 LOWG 192220Z AUTO 13005KT 100V160 9999 FEW008 SCT013 BKN018 12/10 Q1014 LOWG 192150Z AUTO 14004KT 100V170 9999 FEW008 BKN010 12/11 Q1014 LOWG 192120Z 11005KT 070V130 9999 -SHRA FEW009 SCT013 OVC020 12/11 Q1014 RESHRA NOSIG LOWG 192050Z 09006KT 9000 -SHRA FEW009 SCT016 OVC036 12/11 Q1014 RESHRA TEMPO SHRA LOWG 192020Z 11004KT 080V170 8000 SHRA FEW015 OVC036 14/10 Q1014 TEMPO -SHRA LOWG 191950Z 08006KT 9999 SCT030 OVC036 14/11 Q1013 NOSIG LOWG 191920Z 07006KT 350V140 9999 SCT030 OVC036 15/11 Q1013 NOSIG LOWG 191850Z 05005KT 9999 -RA SCT030 OVC036 15/12 Q1013 NOSIG LOWG 191820Z 07007KT 9999 -RA SCT030 OVC036 16/11 Q1012 NOSIG LOWG 191750Z 08009KT 9999 SCT030 OVC036 17/11 Q1012 NOSIG LOWG 191720Z 06008KT 030V090 9999 SCT030 OVC038 18/12 Q1012 NOSIG LOWG 191650Z 06007KT 9999 SCT030 OVC038 18/12 Q1012 NOSIG LOWG 191620Z 07005KT 9999 SCT030 BKN040 18/12 Q1012 NOSIG LOWG 191550Z 08005KT 060V120 9999 SCT030 BKN040 19/12 Q1012 NOSIG LOWG 191520Z 11004KT 9999 SCT030 BKN040 19/12 Q1012 NOSIG LOWG 191450Z 11005KT 9999 SCT030 BKN040 19/12 Q1012 NOSIG

METAR Messwerte

Zurück zur Übersicht

Ort
m ü. NN
Zeit Temperatur Taupunkt Rel.
Luftfeuchte
Luftdruck:
Altimeter
NN
Station
Wind in Beaufort
(Knoten)
Sichtweite
(Meter)
Wolken
(Meter über Grund)
Wettererscheinung
Graz-Thalerhof
347
Di 21.09. 04:20111094 %1023
1024
982
Uml 1 (1)>= 10000Bedeckt (1800)
Leicht bewölkt (120)
 
Graz-Thalerhof
347
Di 21.09. 03:50111094 %1023
1024
982
Uml 1 (1)>= 10000Bedeckt (1800)
Leicht bewölkt (91)
 
Graz-Thalerhof
347
Di 21.09. 03:20111094 %1023
1024
982
Uml 1 (1)>= 10000Stark bewölkt (1800)
Leicht bewölkt (1300)
 
Graz-Thalerhof
347
Di 21.09. 02:50121194 %1023
1024
982
Uml 1 (1)>= 10000Stark bewölkt (1800)
Wolkig (1400)
Leicht bewölkt (1300)
 
Graz-Thalerhof
347
Di 21.09. 02:20111094 %1023
1024
982
Uml 1 (1)>= 10000Stark bewölkt (1500)
Wolkig (1300)
Leicht bewölkt (1200)
 
Graz-Thalerhof
347
Di 21.09. 01:50111094 %1023
1024
982
Uml 1 (1)>= 10000Stark bewölkt (1800)
Wolkig (1300)
 
Graz-Thalerhof
347
Di 21.09. 01:20111094 %1023
1024
982
ONO 1 (2)>= 10000Stark bewölkt (1800)
Wolkig (1300)
Leicht bewölkt (1200)
 
Graz-Thalerhof
347
Di 21.09. 00:50121088 %1023
1024
982
Uml 1 (1)>= 10000Stark bewölkt (1800)
Wolkig (1300)
Leicht bewölkt (1200)
 
Graz-Thalerhof
347
Di 21.09. 00:20121088 %1023
1024
982
Uml 1 (1)>= 10000Stark bewölkt (1300)
Leicht bewölkt (1200)
 
Graz-Thalerhof
347
Mo 20.09. 23:50121088 %1023
1024
982
Uml 1 (1)>= 10000Stark bewölkt (1300)
Leicht bewölkt (1200)
 
Graz-Thalerhof
347
Mo 20.09. 23:20121088 %1023
1024
982
Uml 1 (2)>= 10000Stark bewölkt (1200)
Wolkig (1100)
Leicht bewölkt (610)
 
Graz-Thalerhof
347
Mo 20.09. 22:50121088 %1023
1024
982
Uml 1 (1)>= 10000Stark bewölkt (1200)
Wolkig (1100)
Leicht bewölkt (610)
 
Graz-Thalerhof
347
Mo 20.09. 22:20121088 %1022
1023
981
Uml 1 (1)>= 10000Stark bewölkt (1200)
Wolkig (1100)
Leicht bewölkt (610)
 
Graz-Thalerhof
347
Mo 20.09. 21:50121088 %1022
1023
981
Uml 1 (1)>= 10000Stark bewölkt (1200)
Wolkig (1100)
Leicht bewölkt (610)
 
Graz-Thalerhof
347
Mo 20.09. 21:20121088 %1022
1023
981
Uml 1 (1)>= 10000Stark bewölkt (1200)
Stark bewölkt (1000)
Leicht bewölkt (610)
 
Graz-Thalerhof
347
Mo 20.09. 20:50121088 %1022
1023
981
Uml 1 (1)>= 10000Stark bewölkt (1200)
Stark bewölkt (1100)
Leicht bewölkt (610)
 
Graz-Thalerhof
347
Mo 20.09. 20:20121088 %1021
1022
980
O 2 (3)>= 10000Stark bewölkt (1200)
Wolkig (1000)
Leicht bewölkt (610)
 
Graz-Thalerhof
347
Mo 20.09. 19:5012982 %1021
1022
980
Uml 1 (1)>= 10000Stark bewölkt (1100)
Wolkig (980)
Leicht bewölkt (460)
 
Graz-Thalerhof
347
Mo 20.09. 19:2013977 %1020
1020
979
OSO 1 (2)>= 10000Stark bewölkt (1100)
Wolkig (910)
Leicht bewölkt (460)
 
Graz-Thalerhof
347
Mo 20.09. 18:5013977 %1020
1020
979
SSO 1 (2)>= 10000Stark bewölkt (910)
Wolkig (760)
Leicht bewölkt (430)
 
Graz-Thalerhof
347
Mo 20.09. 18:2013977 %1020
1020
979
Uml 1 (2)>= 10000Stark bewölkt (850)
Wolkig (610)
Leicht bewölkt (430)
 
Graz-Thalerhof
347
Mo 20.09. 17:5013977 %1020
1020
979
Uml 1 (2)>= 10000Stark bewölkt (850)
Wolkig (610)
Leicht bewölkt (400)
 
Graz-Thalerhof
347
Mo 20.09. 17:2013977 %1019
1019
978
OSO 1 (2)>= 10000Stark bewölkt (820)
Wolkig (550)
Leicht bewölkt (400)
 
Graz-Thalerhof
347
Mo 20.09. 16:5013977 %1019
1019
978
S 2 (3)>= 10000Stark bewölkt (730)
Wolkig (610)
Leicht bewölkt (400)
 
Graz-Thalerhof
347
Mo 20.09. 16:2013977 %1019
1019
978
SSO 2 (6)>= 10000Stark bewölkt (670)
Wolkig (580)
Leicht bewölkt (400)
 
Graz-Thalerhof
347
Mo 20.09. 15:5013977 %1019
1019
978
SO 2 (5)>= 10000Stark bewölkt (610)
Wolkig (550)
Leicht bewölkt (400)
 
Graz-Thalerhof
347
Mo 20.09. 15:2013977 %1019
1019
978
Uml 1 (2)>= 10000Stark bewölkt (670)
Wolkig (550)
Leicht bewölkt (400)
 
Graz-Thalerhof
347
Mo 20.09. 14:5013977 %1019
1019
978
Uml 1 (2)>= 10000Stark bewölkt (580)
Wolkig (400)
Leicht bewölkt (270)
 
Graz-Thalerhof
347
Mo 20.09. 14:2013977 %1019
1019
978
WSW 2 (4)
S - W
>= 10000Stark bewölkt (550)
Wolkig (270)
Leicht bewölkt (150)
 
Graz-Thalerhof
347
Mo 20.09. 13:5013977 %1018
1018
977
SW 2 (5)
S - W
>= 10000Stark bewölkt (910)
Wolkig (270)
Leicht bewölkt (150)
 
Graz-Thalerhof
347
Mo 20.09. 13:2012982 %1019
1019
978
SW 2 (4)
S - W
>= 10000Stark bewölkt (460)
Wolkig (370)
Leicht bewölkt (150)
 
Graz-Thalerhof
347
Mo 20.09. 12:5012876 %1018
1018
977
Uml 1 (1)>= 10000Stark bewölkt (430)
Wolkig (240)
Leicht bewölkt (91)
 
Graz-Thalerhof
347
Mo 20.09. 12:2011987 %1018
1019
977
Uml 1 (1)>= 10000Stark bewölkt (430)
Wolkig (240)
Leicht bewölkt (91)
 
Graz-Thalerhof
347
Mo 20.09. 11:5011987 %1018
1019
977
Uml 2 (3)>= 10000Stark bewölkt (370)
Wolkig (240)
Leicht bewölkt (91)
 
Graz-Thalerhof
347
Mo 20.09. 11:2011987 %1018
1019
977
Uml 2 (3)>= 10000Stark bewölkt (370)
Wolkig (240)
Leicht bewölkt (91)
 
Graz-Thalerhof
347
Mo 20.09. 10:5010887 %1018
1019
977
S 2 (4)>= 10000Stark bewölkt (300)
Wolkig (240)
Leicht bewölkt (91)
 
Graz-Thalerhof
347
Mo 20.09. 10:2010887 %1018
1019
977
S 2 (5)>= 10000Stark bewölkt (300)
Wolkig (240)
Leicht bewölkt (91)
 
Graz-Thalerhof
347
Mo 20.09. 09:5010887 %1018
1019
977
SSO 2 (4)
SO - S
>= 10000Stark bewölkt (210)
Wolkig (150)
Leicht bewölkt (91)
 
Graz-Thalerhof
347
Mo 20.09. 09:2010887 %1017
1018
976
S 2 (4)
SO - SSW
>= 10000Stark bewölkt (180)
Wolkig (150)
Leicht bewölkt (91)
Regen (schwach)
Graz-Thalerhof
347
Mo 20.09. 08:509893 %1017
1018
976
S 2 (5)>= 10000Stark bewölkt (370)
Wolkig (180)
Leicht bewölkt (91)
Regen (schwach)
Graz-Thalerhof
347
Mo 20.09. 08:209893 %1017
1018
976
SSO 2 (5)>= 10000Stark bewölkt (370)
Wolkig (180)
Leicht bewölkt (91)
Regen (schwach)
Graz-Thalerhof
347
Mo 20.09. 07:509893 %1016
1017
975
S 2 (4)>= 10000Stark bewölkt (210)
Wolkig (150)
Leicht bewölkt (91)
Regen
Graz-Thalerhof
347
Mo 20.09. 07:209893 %1016
1017
975
S 2 (5)>= 10000Stark bewölkt (370)
Wolkig (240)
Leicht bewölkt (91)
Regen (schwach)
Bald möglich: Regen
Graz-Thalerhof
347
Mo 20.09. 06:509893 %1015
1016
974
S 2 (3)>= 10000Stark bewölkt (370)
Wolkig (180)
Leicht bewölkt (91)
Regen (schwach)
Graz-Thalerhof
347
Mo 20.09. 06:209893 %1015
1016
974
S 2 (3)>= 10000Stark bewölkt (370)
Wolkig (180)
Leicht bewölkt (120)
Regen (schwach)
Graz-Thalerhof
347
Mo 20.09. 05:509893 %1015
1016
974
SSO 2 (4)8000Bedeckt (1100)
Wolkig (370)
Leicht bewölkt (120)
Regen (schwach)
Bald möglich: Regen
Graz-Thalerhof
347
Mo 20.09. 05:209893 %1015
1016
974
SO 2 (6)6000Stark bewölkt (730)
Wolkig (400)
Leicht bewölkt (120)
Regen
Graz-Thalerhof
347
Mo 20.09. 04:509893 %1015
1016
974
SSO 2 (5)6000Stark bewölkt (430)
Wolkig (210)
Leicht bewölkt (91)
Regen
Graz-Thalerhof
347
Mo 20.09. 04:2010993 %1014
1015
973
SSO 2 (5)
SO - S
8000Stark bewölkt (400)
Wolkig (210)
Leicht bewölkt (120)
Regen (schwach)
Graz-Thalerhof
347
Mo 20.09. 03:5010993 %1014
1015
973
SSO 2 (5)9000Stark bewölkt (300)
Leicht bewölkt (150)
Regen/Nieselregen (schwach)
Graz-Thalerhof
347
Mo 20.09. 03:2010993 %1014
1015
973
SO 2 (4)>= 10000Stark bewölkt (430)
Wolkig (150)
 
Graz-Thalerhof
347
Mo 20.09. 02:5011987 %1014
1015
973
S 2 (5)6000Stark bewölkt (460)
Wolkig (430)
Leicht bewölkt (180)
Nieselregen
Graz-Thalerhof
347
Mo 20.09. 02:20111094 %1014
1015
973
S 2 (3)
SSO - SW
>= 10000Stark bewölkt (580)
Wolkig (430)
Leicht bewölkt (240)
Regen/Nieselregen (schwach)
Graz-Thalerhof
347
Mo 20.09. 01:50111094 %1014
1015
973
SSO 1 (2)>= 10000Stark bewölkt (610)
Wolkig (400)
Leicht bewölkt (300)
Regen (schwach)
Graz-Thalerhof
347
Mo 20.09. 01:2011987 %1014
1015
973
Uml 1 (2)>= 10000Stark bewölkt (610)
Wolkig (370)
Leicht bewölkt (340)
Regen (schwach)
Graz-Thalerhof
347
Mo 20.09. 00:5012982 %1014
1014
973
OSO 2 (5)
O - SSO
>= 10000Stark bewölkt (490)
Wolkig (400)
Leicht bewölkt (300)
Regen (schwach)
Graz-Thalerhof
347
Mo 20.09. 00:20121088 %1014
1014
973
SO 2 (5)
O - SSO
>= 10000Stark bewölkt (550)
Wolkig (400)
Leicht bewölkt (240)
 
Graz-Thalerhof
347
So 19.09. 23:50121194 %1014
1014
973
SO 2 (4)
O - S
>= 10000Stark bewölkt (300)
Leicht bewölkt (240)
 
Graz-Thalerhof
347
So 19.09. 23:20121194 %1014
1014
973
OSO 2 (5)
ONO - SO
>= 10000Bedeckt (610)
Wolkig (400)
Leicht bewölkt (270)
Regen-Schauer (schwach)
Graz-Thalerhof
347
So 19.09. 22:50121194 %1014
1014
973
O 2 (6)9000Bedeckt (1100)
Wolkig (490)
Leicht bewölkt (270)
Regen-Schauer (schwach)
Bald möglich: Regen-Schauer
Graz-Thalerhof
347
So 19.09. 22:20141077 %1014
1014
973
OSO 2 (4)
O - S
8000Bedeckt (1100)
Leicht bewölkt (460)
Regen-Schauer
Bald möglich: Regen-Schauer (schwach)
Graz-Thalerhof
347
So 19.09. 21:50141182 %1013
1013
972
O 2 (6)>= 10000Bedeckt (1100)
Wolkig (910)
 
Graz-Thalerhof
347
So 19.09. 21:20151177 %1013
1013
972
ONO 2 (6)
N - SO
>= 10000Bedeckt (1100)
Wolkig (910)
 
Graz-Thalerhof
347
So 19.09. 20:50151282 %1013
1013
972
NO 2 (5)>= 10000Bedeckt (1100)
Wolkig (910)
Regen (schwach)
Graz-Thalerhof
347
So 19.09. 20:20161172 %1012
1012
971
ONO 3 (7)>= 10000Bedeckt (1100)
Wolkig (910)
Regen (schwach)
Graz-Thalerhof
347
So 19.09. 19:50171168 %1012
1012
971
O 3 (9)>= 10000Bedeckt (1100)
Wolkig (910)
 
Graz-Thalerhof
347
So 19.09. 19:20181268 %1012
1012
971
ONO 3 (8)
NNO - O
>= 10000Bedeckt (1200)
Wolkig (910)
 
Graz-Thalerhof
347
So 19.09. 18:50181268 %1012
1012
971
ONO 3 (7)>= 10000Bedeckt (1200)
Wolkig (910)
 
Graz-Thalerhof
347
So 19.09. 18:20181268 %1012
1012
971
ONO 2 (5)>= 10000Stark bewölkt (1200)
Wolkig (910)
 
Graz-Thalerhof
347
So 19.09. 17:50191264 %1012
1011
971
O 2 (5)
ONO - OSO
>= 10000Stark bewölkt (1200)
Wolkig (910)
 
Graz-Thalerhof
347
So 19.09. 17:20191264 %1012
1011
971
OSO 2 (4)>= 10000Stark bewölkt (1200)
Wolkig (910)
 
Graz-Thalerhof
347
So 19.09. 16:50191264 %1012
1011
971
OSO 2 (5)>= 10000Stark bewölkt (1200)
Wolkig (910)
 

Altimeter: Einstellung am Altimeter (Höhenmesser), die Höhe 0 muss auf diesen Luftdruckwert zeigen, damit das Gerät die Stationshöhe richtig anzeigt.

NN: Luftdruck reduziert auf "Normal Null", auf Meereshöhe, dieser von der Temperatur abhängige Wert wird bisweilen unkorrekt einfach als "Luftdruck" bezeichnet. Eigentlich nur eine fiktive Größe, die es erlaubt, Stationen auf unterschiedlichen Höhen miteinander zu vergleichen.

Station: Realer Luftdruck an der Station.